createdAt,value
2022-10-06T00:00:50.965Z,2.70
2022-10-06T00:03:34.406Z,3.05
2022-10-06T00:06:04.736Z,3.50
2022-10-06T00:08:33.454Z,3.08
2022-10-06T00:11:00.889Z,3.40
2022-10-06T00:13:29.344Z,2.85
2022-10-06T00:15:56.673Z,2.60
2022-10-06T00:18:24.408Z,2.95
2022-10-06T00:20:56.200Z,3.00
2022-10-06T00:23:25.471Z,3.50
2022-10-06T00:25:53.290Z,2.67
2022-10-06T00:28:21.020Z,2.80
2022-10-06T00:30:48.444Z,2.97
2022-10-06T00:33:17.724Z,2.88
2022-10-06T00:35:45.331Z,2.67
2022-10-06T00:38:15.940Z,3.40
2022-10-06T00:40:46.266Z,2.45
2022-10-06T00:43:55.816Z,2.97
2022-10-06T00:46:34.412Z,2.67
2022-10-06T00:51:34.453Z,2.60
2022-10-06T00:54:02.853Z,2.53
2022-10-06T00:56:31.566Z,2.55
2022-10-06T00:58:59.063Z,3.22
2022-10-06T01:01:27.106Z,2.70
2022-10-06T01:03:59.519Z,3.00
2022-10-06T01:06:27.114Z,2.63
2022-10-06T01:08:54.701Z,2.53
2022-10-06T01:11:22.081Z,2.88
2022-10-06T01:13:51.230Z,3.25
2022-10-06T01:16:20.640Z,2.65
2022-10-06T01:18:48.174Z,2.42
2022-10-06T01:21:23.984Z,2.63
2022-10-06T01:23:52.899Z,2.88
2022-10-06T01:26:23.817Z,3.17
2022-10-06T01:28:51.699Z,2.97
2022-10-06T01:31:19.487Z,3.00
2022-10-06T01:33:51.457Z,2.90
2022-10-06T01:36:19.069Z,2.85
2022-10-06T01:38:46.384Z,2.83
2022-10-06T01:41:15.583Z,3.38
2022-10-06T01:43:42.882Z,3.13
2022-10-06T01:46:10.055Z,3.15
2022-10-06T01:48:38.018Z,2.70
2022-10-06T01:51:05.679Z,2.75
2022-10-06T01:53:33.450Z,2.75
2022-10-06T01:56:01.199Z,2.72
2022-10-06T01:58:30.335Z,2.40
2022-10-06T02:00:58.235Z,2.67
2022-10-06T02:03:26.128Z,2.50
2022-10-06T02:05:56.370Z,3.00
2022-10-06T02:08:23.742Z,2.85
2022-10-06T02:10:51.711Z,2.78
2022-10-06T02:13:19.059Z,2.90
2022-10-06T02:15:47.874Z,2.90
2022-10-06T02:18:15.637Z,2.60
2022-10-06T02:20:43.953Z,3.00
2022-10-06T02:23:11.235Z,2.95
2022-10-06T02:25:38.734Z,3.13
2022-10-06T02:28:06.062Z,3.10
2022-10-06T02:30:33.601Z,3.08
2022-10-06T02:33:02.776Z,3.08
2022-10-06T02:35:30.122Z,2.88
2022-10-06T02:37:57.416Z,2.85
2022-10-06T02:40:24.948Z,2.53
2022-10-06T02:42:52.291Z,2.97
2022-10-06T02:45:19.532Z,3.03
2022-10-06T02:47:47.472Z,2.67
2022-10-06T02:50:16.363Z,2.60
2022-10-06T02:52:43.562Z,2.90
2022-10-06T02:55:11.760Z,3.17
2022-10-06T02:57:39.797Z,3.03
2022-10-06T03:00:08.597Z,3.03
2022-10-06T03:02:36.627Z,2.80
2022-10-06T03:05:04.669Z,2.95
2022-10-06T03:07:33.639Z,2.88
2022-10-06T03:10:01.424Z,2.53
2022-10-06T03:12:28.825Z,2.53
2022-10-06T03:14:56.172Z,3.05
2022-10-06T03:17:23.795Z,3.15
2022-10-06T03:19:51.127Z,3.20
2022-10-06T03:22:18.707Z,3.10
2022-10-06T03:24:48.441Z,2.92
2022-10-06T03:27:18.122Z,3.40
2022-10-06T03:29:45.351Z,2.70
2022-10-06T03:32:13.111Z,3.50
2022-10-06T03:34:40.602Z,3.05
2022-10-06T03:37:08.128Z,3.63
2022-10-06T03:39:35.677Z,3.40
2022-10-06T03:42:04.480Z,3.08
2022-10-06T03:44:31.739Z,2.90
2022-10-06T03:46:59.496Z,3.55
2022-10-06T03:49:27.031Z,3.10
2022-10-06T03:51:54.589Z,3.88
2022-10-06T03:54:22.321Z,3.38
2022-10-06T03:56:49.554Z,3.25
2022-10-06T03:59:18.304Z,2.95
2022-10-06T04:01:48.333Z,3.55
2022-10-06T04:04:15.626Z,3.00
2022-10-06T04:06:44.122Z,3.63
2022-10-06T04:09:15.605Z,3.13
2022-10-06T04:11:44.879Z,3.53
2022-10-06T04:14:14.299Z,2.90
2022-10-06T04:16:44.635Z,3.20
2022-10-06T04:19:14.305Z,3.28
2022-10-06T04:21:43.548Z,3.65
2022-10-06T04:24:11.580Z,3.00
2022-10-06T04:26:40.954Z,3.45
2022-10-06T04:29:08.624Z,3.75
2022-10-06T04:31:37.629Z,3.58
2022-10-06T04:34:07.559Z,3.53
2022-10-06T04:36:37.179Z,3.45
2022-10-06T04:39:05.864Z,3.60
2022-10-06T04:41:35.132Z,3.28
2022-10-06T04:44:04.115Z,3.78
2022-10-06T04:46:47.922Z,3.78
2022-10-06T04:49:20.388Z,3.38
2022-10-06T04:51:48.793Z,3.60
2022-10-06T04:54:15.996Z,3.80
2022-10-06T04:56:43.717Z,3.70
2022-10-06T04:59:11.169Z,3.10
2022-10-06T05:01:38.362Z,3.55
2022-10-06T05:04:06.689Z,3.60
2022-10-06T05:06:37.117Z,2.97
2022-10-06T05:09:07.070Z,3.65
2022-10-06T05:11:34.916Z,3.55
2022-10-06T05:14:02.128Z,3.47
2022-10-06T05:16:31.070Z,3.30
2022-10-06T05:18:59.176Z,3.10
2022-10-06T05:21:28.208Z,3.72
2022-10-06T05:23:57.344Z,3.08
2022-10-06T05:26:27.080Z,3.83
2022-10-06T05:28:54.843Z,3.80
2022-10-06T05:31:24.372Z,3.53
2022-10-06T05:33:51.723Z,3.13
2022-10-06T05:36:21.095Z,3.33
2022-10-06T05:38:48.960Z,3.60
2022-10-06T05:41:19.329Z,3.58
2022-10-06T05:43:47.514Z,3.05
2022-10-06T05:46:23.249Z,3.55
2022-10-06T05:48:52.182Z,3.40
2022-10-06T05:51:21.046Z,3.80
2022-10-06T05:53:49.088Z,3.80
2022-10-06T05:56:21.037Z,3.75
2022-10-06T05:58:49.842Z,3.72
2022-10-06T06:01:19.892Z,3.92
2022-10-06T06:03:49.115Z,3.22
2022-10-06T06:06:21.541Z,3.25
2022-10-06T06:08:52.307Z,3.20
2022-10-06T06:11:21.559Z,3.42
2022-10-06T06:13:49.220Z,2.78
2022-10-06T06:16:16.552Z,4.18
2022-10-06T06:18:44.650Z,3.60
2022-10-06T06:21:11.836Z,3.88
2022-10-06T06:23:40.988Z,3.40
2022-10-06T06:26:10.874Z,2.90
2022-10-06T06:28:39.529Z,3.72
2022-10-06T06:31:08.589Z,3.30
2022-10-06T06:33:37.329Z,3.63
2022-10-06T06:36:11.583Z,3.60
2022-10-06T06:38:39.496Z,3.55
2022-10-06T06:41:14.422Z,3.53
2022-10-06T06:43:43.772Z,3.70
2022-10-06T06:46:11.605Z,3.25
2022-10-06T06:48:39.514Z,3.45
2022-10-06T06:51:07.448Z,2.47
2022-10-06T06:53:35.097Z,2.97
2022-10-06T06:56:02.927Z,2.85
2022-10-06T06:58:30.516Z,2.60
2022-10-06T07:01:07.328Z,2.75
2022-10-06T07:03:59.322Z,2.80
2022-10-06T07:06:27.788Z,2.72
2022-10-06T07:08:57.152Z,2.38
2022-10-06T07:11:26.851Z,2.70
2022-10-06T07:13:55.190Z,2.55
2022-10-06T07:16:24.690Z,3.08
2022-10-06T07:18:51.880Z,2.20
2022-10-06T07:21:19.230Z,2.80
2022-10-06T07:23:50.777Z,2.40
2022-10-06T07:26:18.283Z,2.25
2022-10-06T07:28:45.927Z,2.60
2022-10-06T07:31:13.616Z,2.63
2022-10-06T07:33:42.756Z,2.40
2022-10-06T07:36:10.419Z,2.60
2022-10-06T07:38:37.752Z,2.67
2022-10-06T07:41:18.837Z,2.88
2022-10-06T07:43:47.358Z,3.25
2022-10-06T07:46:14.947Z,3.35
2022-10-06T07:48:43.648Z,2.75
2022-10-06T07:51:14.074Z,2.85
2022-10-06T07:53:41.419Z,2.70
2022-10-06T07:56:08.999Z,2.60
2022-10-06T07:58:36.943Z,2.50
2022-10-06T08:01:08.972Z,2.35
2022-10-06T08:03:37.566Z,2.75
2022-10-06T08:06:07.631Z,2.65
2022-10-06T08:08:35.094Z,2.53
2022-10-06T08:11:02.602Z,2.63
2022-10-06T08:13:30.913Z,2.60
2022-10-06T08:16:04.698Z,2.40
2022-10-06T08:18:48.217Z,2.22
2022-10-06T08:21:18.817Z,2.10
2022-10-06T08:23:47.830Z,1.92
2022-10-06T08:26:17.413Z,1.75
2022-10-06T08:28:45.736Z,1.73
2022-10-06T08:31:14.545Z,1.80
2022-10-06T08:33:42.534Z,1.77
2022-10-06T08:36:12.329Z,1.90
2022-10-06T08:38:41.738Z,1.67
2022-10-06T08:41:21.205Z,1.90
2022-10-06T08:43:56.111Z,2.10
2022-10-06T08:46:26.422Z,2.00
2022-10-06T08:48:54.135Z,1.70
2022-10-06T08:51:39.629Z,1.80
2022-10-06T08:54:14.205Z,1.50
2022-10-06T08:56:53.585Z,1.70
2022-10-06T08:59:21.637Z,1.58
2022-10-06T09:01:51.761Z,1.92
2022-10-06T09:04:23.310Z,1.88
2022-10-06T09:09:40.775Z,2.08
2022-10-06T09:12:16.687Z,2.15
2022-10-06T09:14:49.639Z,2.10
2022-10-06T09:17:25.202Z,3.03
2022-10-06T09:19:58.084Z,2.13
2022-10-06T09:22:31.212Z,2.10
2022-10-06T09:25:14.110Z,2.00
2022-10-06T09:27:43.596Z,2.30
2022-10-06T09:30:12.811Z,2.10
2022-10-06T09:32:46.141Z,2.72
2022-10-06T09:35:18.636Z,1.98
2022-10-06T09:37:54.690Z,1.92
2022-10-06T09:40:39.807Z,2.00
2022-10-06T09:43:24.600Z,2.20
2022-10-06T09:45:52.127Z,2.00
2022-10-06T09:48:24.671Z,2.03
2022-10-06T09:51:12.383Z,1.88
2022-10-06T09:53:40.539Z,1.77
2022-10-06T09:56:18.524Z,2.50
2022-10-06T09:58:55.564Z,2.38
2022-10-06T10:01:24.869Z,2.22
2022-10-06T10:04:18.734Z,2.10
2022-10-06T10:06:42.204Z,2.17
2022-10-06T10:09:26.086Z,1.67
2022-10-06T10:12:12.229Z,1.90
2022-10-06T10:14:39.949Z,1.90
2022-10-06T10:17:10.907Z,1.73
2022-10-06T10:19:39.475Z,1.60
2022-10-06T10:22:17.952Z,1.70
2022-10-06T10:24:53.995Z,1.67
2022-10-06T10:27:31.955Z,1.88
2022-10-06T10:30:07.890Z,1.23
2022-10-06T10:32:57.149Z,1.10
2022-10-06T10:35:27.801Z,0.90
2022-10-06T10:38:01.362Z,1.00
2022-10-06T10:40:37.461Z,0.75
2022-10-06T10:43:14.718Z,0.80
2022-10-06T10:45:46.125Z,0.70
2022-10-06T10:50:57.332Z,0.40
2022-10-06T10:53:32.522Z,0.90
2022-10-06T10:56:01.693Z,0.60
2022-10-06T10:58:35.529Z,0.70
2022-10-06T11:01:18.079Z,0.70
2022-10-06T11:03:48.946Z,0.70
2022-10-06T11:06:40.285Z,0.60
2022-10-06T11:09:12.022Z,0.52
2022-10-06T11:11:52.490Z,0.60
2022-10-06T11:14:33.801Z,0.80
2022-10-06T11:17:09.010Z,0.70
2022-10-06T11:19:45.216Z,0.80
2022-10-06T11:22:19.237Z,0.80
2022-10-06T11:25:01.467Z,0.70
2022-10-06T11:27:42.327Z,0.85
2022-10-06T11:30:15.624Z,0.73
2022-10-06T11:32:53.287Z,0.90
2022-10-06T11:35:23.534Z,0.77
2022-10-06T11:37:55.990Z,0.77
2022-10-06T11:40:36.896Z,0.80
2022-10-06T11:43:13.299Z,0.70
2022-10-06T11:45:52.165Z,0.90
2022-10-06T11:48:24.914Z,0.90
2022-10-06T11:50:53.242Z,0.80
2022-10-06T11:53:41.687Z,1.10
2022-10-06T11:56:28.172Z,0.93
2022-10-06T11:59:29.233Z,1.55
2022-10-06T12:02:00.039Z,0.85
2022-10-06T12:04:27.812Z,0.70
2022-10-06T12:06:59.806Z,1.20
2022-10-06T12:11:58.512Z,0.80
2022-10-06T12:17:34.153Z,1.30
2022-10-06T12:20:13.415Z,0.80
2022-10-06T12:22:47.564Z,1.05
2022-10-06T12:25:22.827Z,0.95
2022-10-06T12:28:06.569Z,0.90
2022-10-06T12:30:48.207Z,0.85
2022-10-06T12:33:19.651Z,0.90
2022-10-06T12:35:46.985Z,1.00
2022-10-06T12:38:42.385Z,1.00
2022-10-06T12:41:11.030Z,1.20
2022-10-06T12:43:53.259Z,1.10
2022-10-06T12:46:43.751Z,0.93
2022-10-06T12:49:43.673Z,1.00
2022-10-06T12:52:28.836Z,1.20
2022-10-06T12:55:06.394Z,0.95
2022-10-06T12:57:45.379Z,0.90
2022-10-06T13:02:56.254Z,0.88
2022-10-06T13:05:25.315Z,0.90
2022-10-06T13:07:57.112Z,0.85
2022-10-06T13:10:25.018Z,0.93
2022-10-06T13:12:52.402Z,1.00
2022-10-06T13:15:22.528Z,0.93
2022-10-06T13:17:53.054Z,0.80
2022-10-06T13:20:34.044Z,0.88
2022-10-06T13:23:07.538Z,0.98
2022-10-06T13:25:43.731Z,0.82
2022-10-06T13:28:27.843Z,0.77
2022-10-06T13:30:57.913Z,0.95
2022-10-06T13:33:28.896Z,0.90
2022-10-06T13:35:58.220Z,1.20
2022-10-06T13:38:25.895Z,0.90
2022-10-06T13:41:05.145Z,0.77
2022-10-06T13:43:39.741Z,0.80
2022-10-06T13:46:09.638Z,0.73
2022-10-06T13:48:42.385Z,1.00
2022-10-06T13:51:16.529Z,1.15
2022-10-06T13:53:45.520Z,0.63
2022-10-06T13:56:36.358Z,0.73
2022-10-06T13:59:29.085Z,0.80
2022-10-06T14:01:58.147Z,0.90
2022-10-06T14:04:25.731Z,0.70
2022-10-06T14:06:58.151Z,0.90
2022-10-06T14:09:29.756Z,0.93
2022-10-06T14:12:03.885Z,0.98
2022-10-06T14:14:31.927Z,0.98
2022-10-06T14:16:59.460Z,0.80
2022-10-06T14:19:32.124Z,0.80
2022-10-06T14:22:01.156Z,0.80
2022-10-06T14:24:29.122Z,0.88
2022-10-06T14:27:01.559Z,0.90
2022-10-06T14:29:29.060Z,0.90
2022-10-06T14:32:07.766Z,0.93
2022-10-06T14:34:35.968Z,1.00
2022-10-06T14:37:05.398Z,0.93
2022-10-06T14:39:32.737Z,0.68
2022-10-06T14:42:00.087Z,0.85
2022-10-06T14:44:27.672Z,1.00
2022-10-06T14:46:55.002Z,1.02
2022-10-06T14:49:22.245Z,0.90
2022-10-06T14:51:49.840Z,0.80
2022-10-06T14:54:18.417Z,1.10
2022-10-06T14:56:45.700Z,1.15
2022-10-06T14:59:13.559Z,1.17
2022-10-06T15:01:40.837Z,0.95
2022-10-06T15:04:10.084Z,1.02
2022-10-06T15:06:38.205Z,1.20
2022-10-06T15:09:05.956Z,1.33
2022-10-06T15:11:37.640Z,1.00
2022-10-06T15:14:06.155Z,1.25
2022-10-06T15:16:36.805Z,1.60
2022-10-06T15:19:04.231Z,1.50
2022-10-06T15:21:32.156Z,1.20
2022-10-06T15:24:01.089Z,1.52
2022-10-06T15:26:28.756Z,1.50
2022-10-06T15:28:57.746Z,1.50
2022-10-06T15:31:25.347Z,1.63
2022-10-06T15:33:53.297Z,1.23
2022-10-06T15:36:22.886Z,1.20
2022-10-06T15:38:50.768Z,1.13
2022-10-06T15:41:18.700Z,1.10
2022-10-06T15:43:46.324Z,1.10
2022-10-06T15:46:15.139Z,1.30
2022-10-06T15:48:42.832Z,1.33
2022-10-06T15:51:10.526Z,2.33
2022-10-06T15:53:37.782Z,3.08
2022-10-06T15:56:06.023Z,2.60
2022-10-06T15:58:33.394Z,2.10
2022-10-06T16:01:00.986Z,1.70
2022-10-06T16:03:29.780Z,1.63
2022-10-06T16:05:57.072Z,1.60
2022-10-06T16:08:25.566Z,1.13
2022-10-06T16:10:52.796Z,1.27
2022-10-06T16:13:20.186Z,1.20
2022-10-06T16:15:52.882Z,1.80
2022-10-06T16:20:53.651Z,2.05
2022-10-06T16:23:22.296Z,1.45
2022-10-06T16:25:50.445Z,2.13
2022-10-06T16:28:17.872Z,1.85
2022-10-06T16:30:54.706Z,1.58
2022-10-06T16:33:24.337Z,1.95
2022-10-06T16:35:57.159Z,2.05
2022-10-06T16:38:24.643Z,1.70
2022-10-06T16:40:55.097Z,1.50
2022-10-06T16:43:23.198Z,1.88
2022-10-06T16:46:01.953Z,1.52
2022-10-06T16:48:31.029Z,1.73
2022-10-06T16:51:08.684Z,1.70
2022-10-06T16:53:37.873Z,1.98
2022-10-06T16:56:07.490Z,2.00
2022-10-06T16:58:39.243Z,1.65
2022-10-06T17:01:08.360Z,2.63
2022-10-06T17:03:36.202Z,1.98
2022-10-06T17:06:11.379Z,1.83
2022-10-06T17:08:41.250Z,1.38
2022-10-06T17:11:12.288Z,1.85
2022-10-06T17:13:43.989Z,2.40
2022-10-06T17:16:14.076Z,1.92
2022-10-06T17:18:42.375Z,2.70
2022-10-06T17:21:39.658Z,2.95
2022-10-06T17:26:30.039Z,2.00
2022-10-06T17:28:59.392Z,2.60
2022-10-06T17:31:30.869Z,2.15
2022-10-06T17:33:59.104Z,2.70
2022-10-06T17:36:28.038Z,2.88
2022-10-06T17:38:57.842Z,1.83
2022-10-06T17:41:27.159Z,2.83
2022-10-06T17:43:55.162Z,2.88
2022-10-06T17:46:23.175Z,2.90
2022-10-06T17:48:52.611Z,2.70
2022-10-06T17:51:21.482Z,3.50
2022-10-06T17:53:52.357Z,3.00
2022-10-06T17:56:21.199Z,3.05
2022-10-06T17:58:52.713Z,2.08
2022-10-06T18:01:21.779Z,2.72
2022-10-06T18:03:49.834Z,2.20
2022-10-06T18:06:17.944Z,2.20
2022-10-06T18:08:46.546Z,3.08
2022-10-06T18:11:18.063Z,2.90
2022-10-06T18:13:46.771Z,2.80
2022-10-06T18:16:16.212Z,2.45
2022-10-06T18:18:48.176Z,3.60
2022-10-06T18:23:43.173Z,2.53
2022-10-06T18:26:12.222Z,2.50
2022-10-06T18:28:41.021Z,2.15
2022-10-06T18:31:08.798Z,2.33
2022-10-06T18:36:24.298Z,6.25
2022-10-06T18:38:51.994Z,4.75
2022-10-06T18:41:20.201Z,4.45
2022-10-06T18:43:49.325Z,3.58
2022-10-06T18:46:18.799Z,4.35
2022-10-06T18:48:46.265Z,3.70
2022-10-06T18:51:13.593Z,4.85
2022-10-06T18:53:41.379Z,5.75
2022-10-06T18:56:08.552Z,5.10
2022-10-06T18:58:38.206Z,3.47
2022-10-06T19:01:08.152Z,4.35
2022-10-06T19:03:35.504Z,3.47
2022-10-06T19:06:03.263Z,4.95
2022-10-06T19:08:31.451Z,3.65
2022-10-06T19:11:02.450Z,4.82
2022-10-06T19:13:30.063Z,5.53
2022-10-06T19:15:57.684Z,5.35
2022-10-06T19:18:33.362Z,3.90
2022-10-06T19:21:07.242Z,4.32
2022-10-06T19:23:38.191Z,4.05
2022-10-06T19:26:07.553Z,5.38
2022-10-06T19:28:35.077Z,5.35
2022-10-06T19:31:05.299Z,4.82
2022-10-06T19:33:33.939Z,3.75
2022-10-06T19:36:01.200Z,7.43
2022-10-06T19:38:28.952Z,5.45
2022-10-06T19:40:56.352Z,5.43
2022-10-06T19:43:23.913Z,6.57
2022-10-06T19:45:56.991Z,5.70
2022-10-06T19:48:24.295Z,6.13
2022-10-06T19:50:53.087Z,7.80
2022-10-06T19:53:20.673Z,7.72
2022-10-06T19:55:47.937Z,4.70
2022-10-06T19:58:15.570Z,4.90
2022-10-06T20:00:43.147Z,4.70
2022-10-06T20:03:10.381Z,6.35
2022-10-06T20:05:37.588Z,6.68
2022-10-06T20:08:06.514Z,7.45
2022-10-06T20:10:33.797Z,7.13
2022-10-06T20:13:01.093Z,7.18
2022-10-06T20:15:28.719Z,4.78
2022-10-06T20:17:55.987Z,6.38
2022-10-06T20:20:23.356Z,7.53
2022-10-06T20:22:51.102Z,8.02
2022-10-06T20:25:20.168Z,4.22
2022-10-06T20:27:47.482Z,7.32
2022-10-06T20:30:15.321Z,6.63
2022-10-06T20:32:42.575Z,6.97
2022-10-06T20:35:09.850Z,8.25
2022-10-06T20:37:37.363Z,9.35
2022-10-06T20:40:05.696Z,9.20
2022-10-06T20:42:34.436Z,8.68
2022-10-06T20:45:02.103Z,6.55
2022-10-06T20:47:29.441Z,5.40
2022-10-06T20:49:56.972Z,6.82
2022-10-06T20:52:24.412Z,8.63
2022-10-06T20:54:51.886Z,6.10
2022-10-06T20:57:19.490Z,6.03
2022-10-06T20:59:48.365Z,7.78
2022-10-06T21:02:15.554Z,6.35
2022-10-06T21:04:43.084Z,6.10
2022-10-06T21:07:10.568Z,6.78
2022-10-06T21:09:38.118Z,7.47
2022-10-06T21:12:05.829Z,7.53
2022-10-06T21:14:33.077Z,6.63
2022-10-06T21:17:01.825Z,8.50
2022-10-06T21:19:29.716Z,7.43
2022-10-06T21:21:57.100Z,8.52
2022-10-06T21:24:24.370Z,7.40
2022-10-06T21:26:52.203Z,6.65
2022-10-06T21:29:19.723Z,5.68
2022-10-06T21:31:47.177Z,6.03
2022-10-06T21:34:16.188Z,6.80
2022-10-06T21:36:43.603Z,5.85
2022-10-06T21:39:12.326Z,5.93
2022-10-06T21:41:41.278Z,5.63
2022-10-06T21:44:10.247Z,6.00
2022-10-06T21:46:39.222Z,6.35
2022-10-06T21:49:09.878Z,6.75
2022-10-06T21:51:39.568Z,5.05
2022-10-06T21:54:07.182Z,5.45
2022-10-06T21:56:34.593Z,6.47
2022-10-06T21:59:02.135Z,5.32
2022-10-06T22:04:16.379Z,5.63
2022-10-06T22:06:46.339Z,6.45
2022-10-06T22:09:15.936Z,6.75
2022-10-06T22:11:44.473Z,8.00
2022-10-06T22:14:14.159Z,5.22
2022-10-06T22:16:41.587Z,4.85
2022-10-06T22:19:11.218Z,4.50
2022-10-06T22:21:40.423Z,5.63
2022-10-06T22:24:10.505Z,7.50
2022-10-06T22:26:39.438Z,5.53
2022-10-06T22:29:08.628Z,4.80
2022-10-06T22:31:38.523Z,4.88
2022-10-06T22:34:06.344Z,5.88
2022-10-06T22:36:34.605Z,7.55
2022-10-06T22:39:02.484Z,6.57
2022-10-06T22:41:31.386Z,6.63
2022-10-06T22:43:59.887Z,5.53
2022-10-06T22:46:28.928Z,6.18
2022-10-06T22:48:56.536Z,6.45
2022-10-06T22:51:24.416Z,5.82
2022-10-06T22:53:56.686Z,5.65
2022-10-06T22:56:26.232Z,4.97
2022-10-06T22:58:55.375Z,4.13
2022-10-06T23:01:22.535Z,5.00
2022-10-06T23:03:50.511Z,4.97
2022-10-06T23:06:18.362Z,4.28
2022-10-06T23:08:45.730Z,5.15
2022-10-06T23:11:14.987Z,4.13
2022-10-06T23:13:43.455Z,4.65
2022-10-06T23:16:13.987Z,6.13
2022-10-06T23:18:42.483Z,5.43
2022-10-06T23:21:11.649Z,5.68
2022-10-06T23:23:38.943Z,4.20
2022-10-06T23:26:08.687Z,4.82
2022-10-06T23:28:36.642Z,4.25
2022-10-06T23:31:05.098Z,3.88
2022-10-06T23:33:34.833Z,4.43
2022-10-06T23:36:04.044Z,4.60
2022-10-06T23:38:31.629Z,4.75
2022-10-06T23:40:59.215Z,4.60
2022-10-06T23:43:26.555Z,7.18
2022-10-06T23:45:54.032Z,9.73
2022-10-06T23:48:21.670Z,11.63
2022-10-06T23:50:58.402Z,5.47
2022-10-06T23:53:26.475Z,5.35
2022-10-06T23:55:54.068Z,5.10
2022-10-06T23:58:21.765Z,4.50
